sensor_id;sensor_type;location;lat;lon;timestamp;pressure;altitude;pressure_sealevel;temperature;humidity
14120;BME280;7138;49.246;9.100;2023-03-30T00:00:13;98401.88;;;15.08;76.30
14120;BME280;7138;49.246;9.100;2023-03-30T00:02:44;98401.78;;;15.13;76.31
14120;BME280;7138;49.246;9.100;2023-03-30T00:05:11;98397.50;;;15.10;77.18
14120;BME280;7138;49.246;9.100;2023-03-30T00:07:38;98399.25;;;15.08;76.69
14120;BME280;7138;49.246;9.100;2023-03-30T00:10:08;98380.28;;;15.03;78.55
14120;BME280;7138;49.246;9.100;2023-03-30T00:12:36;98388.13;;;15.02;79.80
14120;BME280;7138;49.246;9.100;2023-03-30T00:15:04;98378.06;;;14.87;80.95
14120;BME280;7138;49.246;9.100;2023-03-30T00:17:30;98373.88;;;14.81;82.29
14120;BME280;7138;49.246;9.100;2023-03-30T00:19:58;98360.53;;;14.56;82.95
14120;BME280;7138;49.246;9.100;2023-03-30T00:22:26;98344.31;;;14.47;83.39
14120;BME280;7138;49.246;9.100;2023-03-30T00:24:53;98319.13;;;14.47;84.08
14120;BME280;7138;49.246;9.100;2023-03-30T00:27:19;98304.41;;;14.46;84.43
14120;BME280;7138;49.246;9.100;2023-03-30T00:29:46;98294.81;;;14.48;85.01
14120;BME280;7138;49.246;9.100;2023-03-30T00:32:11;98291.34;;;14.48;85.11
14120;BME280;7138;49.246;9.100;2023-03-30T00:34:37;98281.88;;;14.45;85.43
14120;BME280;7138;49.246;9.100;2023-03-30T00:37:03;98275.81;;;14.45;85.44
14120;BME280;7138;49.246;9.100;2023-03-30T00:39:29;98266.28;;;14.45;85.22
14120;BME280;7138;49.246;9.100;2023-03-30T00:41:55;98270.63;;;14.45;85.28
14120;BME280;7138;49.246;9.100;2023-03-30T00:45:08;98260.22;;;14.45;85.29
14120;BME280;7138;49.246;9.100;2023-03-30T00:47:37;98263.09;;;14.33;85.05
14120;BME280;7138;49.246;9.100;2023-03-30T00:50:07;98264.88;;;14.29;85.06
14120;BME280;7138;49.246;9.100;2023-03-30T00:52:35;98261.59;;;14.21;85.99
14120;BME280;7138;49.246;9.100;2023-03-30T00:55:04;98257.47;;;14.11;85.95
14120;BME280;7138;49.246;9.100;2023-03-30T00:57:34;98263.41;;;14.17;86.48
14120;BME280;7138;49.246;9.100;2023-03-30T01:00:03;98262.53;;;14.18;86.27
14120;BME280;7138;49.246;9.100;2023-03-30T01:02:34;98266.94;;;14.15;86.21
14120;BME280;7138;49.246;9.100;2023-03-30T01:05:04;98271.28;;;14.14;86.04
14120;BME280;7138;49.246;9.100;2023-03-30T01:07:31;98269.53;;;14.13;85.52
14120;BME280;7138;49.246;9.100;2023-03-30T01:10:00;98259.47;;;14.00;86.60
14120;BME280;7138;49.246;9.100;2023-03-30T01:12:26;98271.53;;;14.02;86.30
14120;BME280;7138;49.246;9.100;2023-03-30T01:14:55;98259.53;;;13.95;86.12
14120;BME280;7138;49.246;9.100;2023-03-30T01:17:28;98253.53;;;13.93;86.36
14120;BME280;7138;49.246;9.100;2023-03-30T01:20:55;98257.78;;;13.97;86.19
14120;BME280;7138;49.246;9.100;2023-03-30T01:26:55;98255.44;;;13.85;85.33
14120;BME280;7138;49.246;9.100;2023-03-30T01:29:47;98246.63;;;13.92;85.31
14120;BME280;7138;49.246;9.100;2023-03-30T01:33:15;98242.13;;;14.00;84.61
14120;BME280;7138;49.246;9.100;2023-03-30T01:36:17;98245.59;;;14.01;84.90
14120;BME280;7138;49.246;9.100;2023-03-30T01:39:20;98246.41;;;14.01;84.24
14120;BME280;7138;49.246;9.100;2023-03-30T01:41:58;98246.22;;;14.10;84.23
14120;BME280;7138;49.246;9.100;2023-03-30T01:44:35;98242.59;;;14.17;83.91
14120;BME280;7138;49.246;9.100;2023-03-30T01:47:18;98243.41;;;14.21;83.62
14120;BME280;7138;49.246;9.100;2023-03-30T01:49:57;98242.50;;;14.22;83.46
14120;BME280;7138;49.246;9.100;2023-03-30T01:52:30;98256.25;;;14.27;83.74
14120;BME280;7138;49.246;9.100;2023-03-30T01:55:02;98264.03;;;14.29;83.82
14120;BME280;7138;49.246;9.100;2023-03-30T01:57:38;98265.63;;;14.36;83.77
14120;BME280;7138;49.246;9.100;2023-03-30T02:00:12;98262.88;;;14.43;83.44
14120;BME280;7138;49.246;9.100;2023-03-30T02:02:44;98267.06;;;14.49;83.21
14120;BME280;7138;49.246;9.100;2023-03-30T02:05:16;98265.13;;;14.57;82.87
14120;BME280;7138;49.246;9.100;2023-03-30T02:07:48;98249.38;;;14.63;82.78
14120;BME280;7138;49.246;9.100;2023-03-30T02:10:19;98256.16;;;14.70;82.48
14120;BME280;7138;49.246;9.100;2023-03-30T02:12:47;98262.16;;;14.72;82.22
14120;BME280;7138;49.246;9.100;2023-03-30T02:15:16;98267.22;;;14.78;82.28
14120;BME280;7138;49.246;9.100;2023-03-30T02:17:43;98267.97;;;14.83;82.08
14120;BME280;7138;49.246;9.100;2023-03-30T02:20:13;98260.13;;;14.85;81.91
14120;BME280;7138;49.246;9.100;2023-03-30T02:22:42;98260.19;;;14.82;81.74
14120;BME280;7138;49.246;9.100;2023-03-30T02:25:09;98248.84;;;14.84;81.72
14120;BME280;7138;49.246;9.100;2023-03-30T02:27:37;98261.63;;;14.93;81.68
14120;BME280;7138;49.246;9.100;2023-03-30T02:30:05;98265.00;;;14.98;81.81
14120;BME280;7138;49.246;9.100;2023-03-30T02:32:40;98270.16;;;15.00;81.73
14120;BME280;7138;49.246;9.100;2023-03-30T02:35:26;98272.72;;;15.01;81.54
14120;BME280;7138;49.246;9.100;2023-03-30T02:38:21;98273.84;;;14.91;81.66
14120;BME280;7138;49.246;9.100;2023-03-30T02:41:04;98277.41;;;14.87;82.23
14120;BME280;7138;49.246;9.100;2023-03-30T02:43:43;98280.84;;;14.89;82.24
14120;BME280;7138;49.246;9.100;2023-03-30T02:46:28;98264.50;;;14.83;83.40
14120;BME280;7138;49.246;9.100;2023-03-30T02:49:13;98240.53;;;14.70;83.53
14120;BME280;7138;49.246;9.100;2023-03-30T02:51:46;98250.94;;;14.70;84.16
14120;BME280;7138;49.246;9.100;2023-03-30T02:54:36;98257.94;;;14.68;84.88
14120;BME280;7138;49.246;9.100;2023-03-30T02:57:14;98250.16;;;14.66;85.48
14120;BME280;7138;49.246;9.100;2023-03-30T02:59:53;98237.84;;;14.73;85.88
14120;BME280;7138;49.246;9.100;2023-03-30T03:02:28;98238.72;;;14.72;85.62
14120;BME280;7138;49.246;9.100;2023-03-30T03:04:57;98248.22;;;14.74;85.89
14120;BME280;7138;49.246;9.100;2023-03-30T03:07:24;98239.53;;;14.75;86.14
14120;BME280;7138;49.246;9.100;2023-03-30T03:09:52;98242.19;;;14.74;86.06
14120;BME280;7138;49.246;9.100;2023-03-30T03:12:18;98235.19;;;14.74;86.21
14120;BME280;7138;49.246;9.100;2023-03-30T03:14:45;98217.13;;;14.68;87.00
14120;BME280;7138;49.246;9.100;2023-03-30T03:17:11;98212.00;;;14.65;87.15
14120;BME280;7138;49.246;9.100;2023-03-30T03:19:39;98198.25;;;14.62;87.35
14120;BME280;7138;49.246;9.100;2023-03-30T03:22:05;98205.44;;;14.51;88.48
14120;BME280;7138;49.246;9.100;2023-03-30T03:24:31;98230.41;;;14.19;90.37
14120;BME280;7138;49.246;9.100;2023-03-30T03:26:58;98233.88;;;13.80;92.15
14120;BME280;7138;49.246;9.100;2023-03-30T03:29:24;98229.66;;;13.76;91.45
14120;BME280;7138;49.246;9.100;2023-03-30T03:31:51;98234.75;;;13.81;91.27
14120;BME280;7138;49.246;9.100;2023-03-30T03:34:17;98242.47;;;13.85;90.89
14120;BME280;7138;49.246;9.100;2023-03-30T03:36:43;98247.47;;;13.94;91.00
14120;BME280;7138;49.246;9.100;2023-03-30T03:39:08;98239.63;;;13.96;91.33
14120;BME280;7138;49.246;9.100;2023-03-30T03:41:34;98238.88;;;13.89;92.23
14120;BME280;7138;49.246;9.100;2023-03-30T03:44:00;98238.81;;;13.92;91.71
14120;BME280;7138;49.246;9.100;2023-03-30T03:46:26;98257.84;;;13.94;91.89
14120;BME280;7138;49.246;9.100;2023-03-30T03:48:53;98268.13;;;13.99;91.83
14120;BME280;7138;49.246;9.100;2023-03-30T03:51:19;98272.41;;;14.03;91.98
14120;BME280;7138;49.246;9.100;2023-03-30T03:53:45;98271.53;;;14.02;92.47
14120;BME280;7138;49.246;9.100;2023-03-30T03:56:12;98263.84;;;13.98;93.10
14120;BME280;7138;49.246;9.100;2023-03-30T03:58:39;98252.53;;;13.99;92.62
14120;BME280;7138;49.246;9.100;2023-03-30T04:01:05;98235.31;;;13.95;93.59
14120;BME280;7138;49.246;9.100;2023-03-30T04:03:31;98236.19;;;13.94;93.49
14120;BME280;7138;49.246;9.100;2023-03-30T04:06:00;98230.19;;;13.92;93.73
14120;BME280;7138;49.246;9.100;2023-03-30T04:08:27;98212.00;;;13.92;93.66
14120;BME280;7138;49.246;9.100;2023-03-30T04:10:53;98210.13;;;13.97;94.07
14120;BME280;7138;49.246;9.100;2023-03-30T04:13:19;98207.44;;;14.01;94.30
14120;BME280;7138;49.246;9.100;2023-03-30T04:15:46;98193.59;;;14.01;94.51
14120;BME280;7138;49.246;9.100;2023-03-30T04:18:11;98184.94;;;14.00;94.13
14120;BME280;7138;49.246;9.100;2023-03-30T04:20:37;98172.00;;;13.97;94.52
14120;BME280;7138;49.246;9.100;2023-03-30T04:23:04;98164.22;;;13.97;94.57
14120;BME280;7138;49.246;9.100;2023-03-30T04:25:30;98165.97;;;13.95;94.57
14120;BME280;7138;49.246;9.100;2023-03-30T04:27:56;98151.44;;;13.87;95.09
14120;BME280;7138;49.246;9.100;2023-03-30T04:30:22;98156.75;;;13.82;95.05
14120;BME280;7138;49.246;9.100;2023-03-30T04:32:48;98142.84;;;13.83;95.41
14120;BME280;7138;49.246;9.100;2023-03-30T04:35:29;98114.41;;;13.79;95.10
14120;BME280;7138;49.246;9.100;2023-03-30T04:37:55;98119.47;;;13.83;94.83
14120;BME280;7138;49.246;9.100;2023-03-30T04:40:24;98121.13;;;13.87;94.67
14120;BME280;7138;49.246;9.100;2023-03-30T04:42:50;98128.81;;;13.92;94.61
14120;BME280;7138;49.246;9.100;2023-03-30T04:45:16;98125.25;;;13.96;94.31
14120;BME280;7138;49.246;9.100;2023-03-30T04:47:43;98124.31;;;13.98;94.61
14120;BME280;7138;49.246;9.100;2023-03-30T04:50:10;98122.56;;;14.00;94.86
14120;BME280;7138;49.246;9.100;2023-03-30T04:52:35;98116.44;;;14.01;95.24
14120;BME280;7138;49.246;9.100;2023-03-30T04:55:01;98121.72;;;13.98;95.57
14120;BME280;7138;49.246;9.100;2023-03-30T04:57:29;98135.75;;;13.91;96.69
14120;BME280;7138;49.246;9.100;2023-03-30T04:59:55;98137.53;;;13.89;98.32
14120;BME280;7138;49.246;9.100;2023-03-30T05:02:21;98139.53;;;13.78;100.00
14120;BME280;7138;49.246;9.100;2023-03-30T05:04:47;98135.19;;;13.77;100.00
14120;BME280;7138;49.246;9.100;2023-03-30T05:07:13;98119.47;;;13.83;100.00
14120;BME280;7138;49.246;9.100;2023-03-30T05:09:39;98122.84;;;13.88;100.00
14120;BME280;7138;49.246;9.100;2023-03-30T05:12:05;98126.19;;;13.93;100.00
14120;BME280;7138;49.246;9.100;2023-03-30T05:14:32;98138.16;;;14.00;100.00
14120;BME280;7138;49.246;9.100;2023-03-30T05:16:58;98131.09;;;14.05;100.00
14120;BME280;7138;49.246;9.100;2023-03-30T05:19:24;98136.94;;;14.13;100.00
14120;BME280;7138;49.246;9.100;2023-03-30T05:21:50;98119.44;;;14.21;100.00
14120;BME280;7138;49.246;9.100;2023-03-30T05:24:16;98118.47;;;14.26;100.00
14120;BME280;7138;49.246;9.100;2023-03-30T05:26:42;98087.19;;;14.29;100.00
14120;BME280;7138;49.246;9.100;2023-03-30T05:29:08;98094.03;;;14.33;100.00
14120;BME280;7138;49.246;9.100;2023-03-30T05:31:36;98090.47;;;14.37;100.00
14120;BME280;7138;49.246;9.100;2023-03-30T05:34:02;98089.47;;;14.42;100.00
14120;BME280;7138;49.246;9.100;2023-03-30T05:36:28;98093.69;;;14.46;100.00
14120;BME280;7138;49.246;9.100;2023-03-30T05:38:53;98090.97;;;14.51;100.00
14120;BME280;7138;49.246;9.100;2023-03-30T05:41:19;98088.34;;;14.52;100.00
14120;BME280;7138;49.246;9.100;2023-03-30T05:43:45;98104.81;;;14.53;100.00
14120;BME280;7138;49.246;9.100;2023-03-30T05:46:12;98115.13;;;14.56;100.00
14120;BME280;7138;49.246;9.100;2023-03-30T05:48:39;98129.81;;;14.57;100.00
14120;BME280;7138;49.246;9.100;2023-03-30T05:51:06;98121.94;;;14.60;100.00
14120;BME280;7138;49.246;9.100;2023-03-30T05:53:32;98121.84;;;14.64;100.00
14120;BME280;7138;49.246;9.100;2023-03-30T05:55:58;98115.69;;;14.67;100.00
14120;BME280;7138;49.246;9.100;2023-03-30T05:58:24;98137.44;;;14.64;100.00
14120;BME280;7138;49.246;9.100;2023-03-30T06:00:49;98172.22;;;14.62;100.00
14120;BME280;7138;49.246;9.100;2023-03-30T06:03:17;98218.59;;;14.45;100.00
14120;BME280;7138;49.246;9.100;2023-03-30T06:05:44;98260.34;;;14.39;100.00
14120;BME280;7138;49.246;9.100;2023-03-30T06:08:10;98266.56;;;14.32;100.00
14120;BME280;7138;49.246;9.100;2023-03-30T06:10:37;98253.72;;;14.26;100.00
14120;BME280;7138;49.246;9.100;2023-03-30T06:13:04;98244.13;;;14.28;100.00
14120;BME280;7138;49.246;9.100;2023-03-30T06:15:29;98245.75;;;14.32;100.00
14120;BME280;7138;49.246;9.100;2023-03-30T06:17:55;98253.66;;;14.27;100.00
14120;BME280;7138;49.246;9.100;2023-03-30T06:20:23;98261.59;;;14.21;100.00
14120;BME280;7138;49.246;9.100;2023-03-30T06:22:52;98248.50;;;14.26;100.00
14120;BME280;7138;49.246;9.100;2023-03-30T06:25:18;98257.13;;;14.26;100.00
14120;BME280;7138;49.246;9.100;2023-03-30T06:27:48;98265.78;;;14.28;100.00
14120;BME280;7138;49.246;9.100;2023-03-30T06:30:14;98262.25;;;14.31;100.00
14120;BME280;7138;49.246;9.100;2023-03-30T06:32:41;98269.13;;;14.35;100.00
14120;BME280;7138;49.246;9.100;2023-03-30T06:35:07;98274.28;;;14.38;100.00
14120;BME280;7138;49.246;9.100;2023-03-30T06:37:34;98263.09;;;14.31;100.00
14120;BME280;7138;49.246;9.100;2023-03-30T06:40:03;98281.22;;;14.36;100.00
14120;BME280;7138;49.246;9.100;2023-03-30T06:42:38;98278.63;;;14.36;100.00
14120;BME280;7138;49.246;9.100;2023-03-30T06:45:05;98288.09;;;14.40;100.00
14120;BME280;7138;49.246;9.100;2023-03-30T06:47:31;98281.16;;;14.39;100.00
14120;BME280;7138;49.246;9.100;2023-03-30T06:49:57;98248.50;;;14.26;100.00
14120;BME280;7138;49.246;9.100;2023-03-30T06:52:22;98275.88;;;14.42;100.00
14120;BME280;7138;49.246;9.100;2023-03-30T06:54:48;98284.56;;;14.42;100.00
14120;BME280;7138;49.246;9.100;2023-03-30T06:57:15;98292.47;;;14.38;100.00
14120;BME280;7138;49.246;9.100;2023-03-30T06:59:41;98304.72;;;14.31;100.00
14120;BME280;7138;49.246;9.100;2023-03-30T07:02:12;98293.63;;;14.23;100.00
14120;BME280;7138;49.246;9.100;2023-03-30T07:04:39;98317.09;;;14.20;100.00
14120;BME280;7138;49.246;9.100;2023-03-30T07:07:05;98333.59;;;14.17;100.00
14120;BME280;7138;49.246;9.100;2023-03-30T07:09:30;98346.53;;;14.22;100.00
14120;BME280;7138;49.246;9.100;2023-03-30T07:11:57;98336.06;;;14.25;100.00
14120;BME280;7138;49.246;9.100;2023-03-30T07:14:24;98286.66;;;14.23;100.00
14120;BME280;7138;49.246;9.100;2023-03-30T07:16:50;98263.97;;;14.32;100.00
14120;BME280;7138;49.246;9.100;2023-03-30T07:19:17;98284.06;;;14.23;100.00
14120;BME280;7138;49.246;9.100;2023-03-30T07:21:43;98293.63;;;14.23;100.00
14120;BME280;7138;49.246;9.100;2023-03-30T07:24:09;98276.09;;;14.33;100.00
14120;BME280;7138;49.246;9.100;2023-03-30T07:26:35;98281.34;;;14.30;100.00
14120;BME280;7138;49.246;9.100;2023-03-30T07:29:01;98278.72;;;14.31;100.00
14120;BME280;7138;49.246;9.100;2023-03-30T07:31:28;98283.91;;;14.33;100.00
14120;BME280;7138;49.246;9.100;2023-03-30T07:33:54;98290.78;;;14.35;100.00
14120;BME280;7138;49.246;9.100;2023-03-30T07:36:20;98301.19;;;14.35;100.00
14120;BME280;7138;49.246;9.100;2023-03-30T07:38:46;98291.63;;;14.36;100.00
14120;BME280;7138;49.246;9.100;2023-03-30T07:41:14;98292.41;;;14.41;100.00
14120;BME280;7138;49.246;9.100;2023-03-30T07:43:41;98296.69;;;14.43;100.00
14120;BME280;7138;49.246;9.100;2023-03-30T07:46:07;98308.97;;;14.37;100.00
14120;BME280;7138;49.246;9.100;2023-03-30T07:48:35;98319.56;;;14.26;100.00
14120;BME280;7138;49.246;9.100;2023-03-30T07:51:05;98299.00;;;14.15;100.00
14120;BME280;7138;49.246;9.100;2023-03-30T07:53:32;98323.78;;;14.32;100.00
14120;BME280;7138;49.246;9.100;2023-03-30T07:55:58;98322.91;;;14.33;100.00
14120;BME280;7138;49.246;9.100;2023-03-30T07:58:25;98322.91;;;14.33;100.00
14120;BME280;7138;49.246;9.100;2023-03-30T08:00:52;98340.84;;;14.45;100.00
14120;BME280;7138;49.246;9.100;2023-03-30T08:03:19;98344.44;;;14.41;100.00
14120;BME280;7138;49.246;9.100;2023-03-30T08:05:53;98313.38;;;14.33;100.00
14120;BME280;7138;49.246;9.100;2023-03-30T08:08:19;98338.53;;;14.33;100.00
14120;BME280;7138;49.246;9.100;2023-03-30T08:10:45;98341.91;;;14.36;100.00
14120;BME280;7138;49.246;9.100;2023-03-30T08:13:11;98338.38;;;14.39;100.00
14120;BME280;7138;49.246;9.100;2023-03-30T08:15:37;98330.72;;;14.33;100.00
14120;BME280;7138;49.246;9.100;2023-03-30T08:18:03;98327.97;;;14.40;100.00
14120;BME280;7138;49.246;9.100;2023-03-30T08:20:32;98326.22;;;14.41;100.00
14120;BME280;7138;49.246;9.100;2023-03-30T08:22:59;98322.66;;;14.45;100.00
14120;BME280;7138;49.246;9.100;2023-03-30T08:25:26;98301.84;;;14.45;100.00
14120;BME280;7138;49.246;9.100;2023-03-30T08:27:52;98299.06;;;14.52;100.00
14120;BME280;7138;49.246;9.100;2023-03-30T08:30:17;98266.91;;;14.55;100.00
14120;BME280;7138;49.246;9.100;2023-03-30T08:32:43;98248.81;;;14.50;100.00
14120;BME280;7138;49.246;9.100;2023-03-30T08:35:10;98272.28;;;14.47;100.00
14120;BME280;7138;49.246;9.100;2023-03-30T08:37:38;98284.28;;;14.54;100.00
14120;BME280;7138;49.246;9.100;2023-03-30T08:40:09;98290.28;;;14.56;100.00
14120;BME280;7138;49.246;9.100;2023-03-30T08:42:56;98286.72;;;14.60;100.00
14120;BME280;7138;49.246;9.100;2023-03-30T08:45:34;98272.94;;;14.57;100.00
14120;BME280;7138;49.246;9.100;2023-03-30T08:48:02;98268.56;;;14.59;100.00
14120;BME280;7138;49.246;9.100;2023-03-30T08:50:31;98270.38;;;14.55;100.00
14120;BME280;7138;49.246;9.100;2023-03-30T08:52:57;98270.47;;;14.51;100.00
14120;BME280;7138;49.246;9.100;2023-03-30T08:55:30;98271.41;;;14.48;100.00
14120;BME280;7138;49.246;9.100;2023-03-30T08:58:02;98272.06;;;14.56;100.00
14120;BME280;7138;49.246;9.100;2023-03-30T09:00:39;98277.06;;;14.65;100.00
14120;BME280;7138;49.246;9.100;2023-03-30T09:03:17;98276.75;;;14.79;100.00
14120;BME280;7138;49.246;9.100;2023-03-30T09:05:50;98272.28;;;14.84;100.00
14120;BME280;7138;49.246;9.100;2023-03-30T09:08:20;98259.03;;;14.93;100.00
14120;BME280;7138;49.246;9.100;2023-03-30T09:10:53;98259.78;;;14.98;100.00
14120;BME280;7138;49.246;9.100;2023-03-30T09:13:24;98262.97;;;15.09;100.00
14120;BME280;7138;49.246;9.100;2023-03-30T09:15:59;98268.97;;;15.11;100.00
14120;BME280;7138;49.246;9.100;2023-03-30T09:18:30;98290.66;;;15.13;100.00
14120;BME280;7138;49.246;9.100;2023-03-30T09:20:58;98316.06;;;15.04;100.00
14120;BME280;7138;49.246;9.100;2023-03-30T09:23:27;98321.34;;;14.99;100.00
14120;BME280;7138;49.246;9.100;2023-03-30T09:26:09;98328.00;;;15.11;100.00
14120;BME280;7138;49.246;9.100;2023-03-30T09:28:50;98329.81;;;15.09;100.00
14120;BME280;7138;49.246;9.100;2023-03-30T09:31:22;98325.63;;;15.03;100.00
14120;BME280;7138;49.246;9.100;2023-03-30T09:33:56;98319.50;;;14.69;100.00
14120;BME280;7138;49.246;9.100;2023-03-30T09:36:30;98344.41;;;14.79;100.00
14120;BME280;7138;49.246;9.100;2023-03-30T09:38:59;98342.69;;;14.80;100.00
14120;BME280;7138;49.246;9.100;2023-03-30T09:41:47;98332.06;;;14.87;100.00
14120;BME280;7138;49.246;9.100;2023-03-30T09:44:25;98346.13;;;14.80;100.00
14120;BME280;7138;49.246;9.100;2023-03-30T09:46:56;98326.00;;;14.87;100.00
14120;BME280;7138;49.246;9.100;2023-03-30T09:49:26;98314.56;;;14.94;100.00
14120;BME280;7138;49.246;9.100;2023-03-30T09:52:01;98301.53;;;14.94;100.00
14120;BME280;7138;49.246;9.100;2023-03-30T09:54:34;98314.75;;;14.86;100.00
14120;BME280;7138;49.246;9.100;2023-03-30T09:57:03;98297.44;;;14.84;100.00
14120;BME280;7138;49.246;9.100;2023-03-30T09:59:32;98295.75;;;14.83;100.00
14120;BME280;7138;49.246;9.100;2023-03-30T10:02:18;98285.28;;;14.84;100.00
14120;BME280;7138;49.246;9.100;2023-03-30T10:05:02;98280.69;;;14.95;100.00
14120;BME280;7138;49.246;9.100;2023-03-30T10:07:33;98291.84;;;14.99;100.00
14120;BME280;7138;49.246;9.100;2023-03-30T10:10:10;98297.19;;;14.94;100.00
14120;BME280;7138;49.246;9.100;2023-03-30T10:12:38;98311.03;;;14.96;100.00
14120;BME280;7138;49.246;9.100;2023-03-30T10:15:05;98300.59;;;14.96;100.00
14120;BME280;7138;49.246;9.100;2023-03-30T10:17:40;98300.81;;;14.89;100.00
14120;BME280;7138;49.246;9.100;2023-03-30T10:20:34;98301.84;;;14.82;100.00
14120;BME280;7138;49.246;9.100;2023-03-30T10:23:04;98290.56;;;14.81;100.00
14120;BME280;7138;49.246;9.100;2023-03-30T10:25:33;98309.41;;;14.92;100.00
14120;BME280;7138;49.246;9.100;2023-03-30T10:28:03;98317.06;;;14.98;100.00
14120;BME280;7138;49.246;9.100;2023-03-30T10:30:32;98317.00;;;15.01;100.00
14120;BME280;7138;49.246;9.100;2023-03-30T10:33:00;98311.56;;;15.10;100.00
14120;BME280;7138;49.246;9.100;2023-03-30T10:35:34;98299.91;;;15.23;100.00
14120;BME280;7138;49.246;9.100;2023-03-30T10:38:02;98315.34;;;15.31;100.00
14120;BME280;7138;49.246;9.100;2023-03-30T10:40:34;98307.50;;;15.32;100.00
14120;BME280;7138;49.246;9.100;2023-03-30T10:43:06;98306.78;;;15.26;100.00
14120;BME280;7138;49.246;9.100;2023-03-30T10:45:42;98307.50;;;15.32;100.00
14120;BME280;7138;49.246;9.100;2023-03-30T10:51:18;98309.66;;;15.51;100.00
14120;BME280;7138;49.246;9.100;2023-03-30T10:53:55;98319.91;;;15.57;100.00
14120;BME280;7138;49.246;9.100;2023-03-30T10:56:33;98296.44;;;15.57;100.00
14120;BME280;7138;49.246;9.100;2023-03-30T10:59:32;98291.91;;;15.65;100.00
14120;BME280;7138;49.246;9.100;2023-03-30T11:02:41;98306.78;;;15.60;100.00
14120;BME280;7138;49.246;9.100;2023-03-30T11:05:14;98307.09;;;15.49;100.00
14120;BME280;7138;49.246;9.100;2023-03-30T11:07:45;98287.63;;;15.62;100.00
14120;BME280;7138;49.246;9.100;2023-03-30T11:10:18;98298.03;;;15.93;100.00
14120;BME280;7138;49.246;9.100;2023-03-30T11:12:53;98302.97;;;16.02;99.36
14120;BME280;7138;49.246;9.100;2023-03-30T11:15:27;98302.41;;;15.93;94.53
14120;BME280;7138;49.246;9.100;2023-03-30T11:18:04;98310.78;;;15.73;90.82
14120;BME280;7138;49.246;9.100;2023-03-30T11:20:40;98291.47;;;15.80;91.56
14120;BME280;7138;49.246;9.100;2023-03-30T11:23:19;98287.59;;;15.93;91.32
14120;BME280;7138;49.246;9.100;2023-03-30T11:25:57;98292.63;;;15.70;85.90
14120;BME280;7138;49.246;9.100;2023-03-30T11:28:59;98309.91;;;15.72;88.33
14120;BME280;7138;49.246;9.100;2023-03-30T11:31:43;98302.69;;;15.83;89.61
14120;BME280;7138;49.246;9.100;2023-03-30T11:34:21;98293.13;;;15.82;87.29
14120;BME280;7138;49.246;9.100;2023-03-30T11:37:00;98297.03;;;15.68;88.11
14120;BME280;7138;49.246;9.100;2023-03-30T11:39:33;98296.69;;;15.80;89.34
14120;BME280;7138;49.246;9.100;2023-03-30T11:42:12;98296.59;;;15.83;88.72
14120;BME280;7138;49.246;9.100;2023-03-30T11:44:39;98312.16;;;15.86;87.71
14120;BME280;7138;49.246;9.100;2023-03-30T11:47:29;98317.38;;;15.86;85.65
14120;BME280;7138;49.246;9.100;2023-03-30T11:50:13;98303.06;;;15.99;88.10
14120;BME280;7138;49.246;9.100;2023-03-30T11:53:00;98300.69;;;16.21;88.64
14120;BME280;7138;49.246;9.100;2023-03-30T11:55:49;98295.69;;;16.42;88.56
14120;BME280;7138;49.246;9.100;2023-03-30T11:58:33;98301.28;;;16.60;87.08
14120;BME280;7138;49.246;9.100;2023-03-30T12:01:24;98290.19;;;16.81;86.17
14120;BME280;7138;49.246;9.100;2023-03-30T12:03:58;98298.16;;;16.76;85.38
14120;BME280;7138;49.246;9.100;2023-03-30T12:06:32;98299.13;;;16.72;85.48
14120;BME280;7138;49.246;9.100;2023-03-30T12:09:20;98297.22;;;16.50;85.25
14120;BME280;7138;49.246;9.100;2023-03-30T12:11:50;98301.53;;;16.51;86.85
14120;BME280;7138;49.246;9.100;2023-03-30T12:14:54;98293.94;;;16.43;87.39
14120;BME280;7138;49.246;9.100;2023-03-30T12:17:46;98293.06;;;16.44;88.73
14120;BME280;7138;49.246;9.100;2023-03-30T12:20:28;98282.16;;;16.59;88.62
14120;BME280;7138;49.246;9.100;2023-03-30T12:23:09;98275.31;;;16.83;89.59
14120;BME280;7138;49.246;9.100;2023-03-30T12:26:03;98280.81;;;17.00;88.76
14120;BME280;7138;49.246;9.100;2023-03-30T12:28:54;98269.31;;;17.06;86.96
14120;BME280;7138;49.246;9.100;2023-03-30T12:31:22;98260.06;;;17.22;87.91
14120;BME280;7138;49.246;9.100;2023-03-30T12:33:50;98264.09;;;17.30;85.03
14120;BME280;7138;49.246;9.100;2023-03-30T12:36:35;98270.88;;;17.11;84.34
14120;BME280;7138;49.246;9.100;2023-03-30T12:39:09;98255.41;;;17.05;82.90
14120;BME280;7138;49.246;9.100;2023-03-30T12:41:42;98275.38;;;17.06;83.74
14120;BME280;7138;49.246;9.100;2023-03-30T12:44:39;98249.13;;;17.11;84.53
14120;BME280;7138;49.246;9.100;2023-03-30T12:47:29;98247.38;;;17.11;83.57
14120;BME280;7138;49.246;9.100;2023-03-30T12:50:13;98248.25;;;17.10;82.13
14120;BME280;7138;49.246;9.100;2023-03-30T12:52:58;98262.41;;;17.29;83.35
14120;BME280;7138;49.246;9.100;2023-03-30T12:55:41;98240.78;;;17.24;82.28
14120;BME280;7138;49.246;9.100;2023-03-30T12:59:06;98246.53;;;17.35;81.72
14120;BME280;7138;49.246;9.100;2023-03-30T13:01:57;98228.38;;;17.56;82.76
14120;BME280;7138;49.246;9.100;2023-03-30T13:04:28;98223.88;;;17.84;82.27
14120;BME280;7138;49.246;9.100;2023-03-30T13:07:02;98221.56;;;17.98;79.35
14120;BME280;7138;49.246;9.100;2023-03-30T13:09:51;98219.09;;;18.17;79.01
14120;BME280;7138;49.246;9.100;2023-03-30T13:12:31;98214.91;;;18.34;75.47
14120;BME280;7138;49.246;9.100;2023-03-30T13:15:01;98216.50;;;18.38;76.92
14120;BME280;7138;49.246;9.100;2023-03-30T13:17:48;98214.41;;;18.46;75.29
14120;BME280;7138;49.246;9.100;2023-03-30T13:20:32;98209.19;;;18.25;73.83
14120;BME280;7138;49.246;9.100;2023-03-30T13:23:22;98202.06;;;17.83;74.83
14120;BME280;7138;49.246;9.100;2023-03-30T13:26:03;98216.22;;;17.55;77.02
14120;BME280;7138;49.246;9.100;2023-03-30T13:28:35;98191.78;;;17.31;77.68
14120;BME280;7138;49.246;9.100;2023-03-30T13:31:14;98213.00;;;17.22;79.00
14120;BME280;7138;49.246;9.100;2023-03-30T13:33:51;98203.53;;;17.19;78.72
14120;BME280;7138;49.246;9.100;2023-03-30T13:36:29;98194.69;;;17.23;79.61
14120;BME280;7138;49.246;9.100;2023-03-30T13:39:10;98192.00;;;17.25;79.41